In Rescue
 
Open Full Screen Window  High Contrast Mode
Wind Gusting 00 knots
04
October 19, 2020 6:41 PM CDT
Weather Information
Wind Direction
  120 °
Wind Speed
  04 kt (5 mph)
Wind Gust
  00 kt (0 mph)
Altimeter
30.22 in
Visibility
10 SM
Temperature
01° C
34° F
Dewpoint
-06° C
21° F
Humidity
60%
1hr Rain Fall
00.00 in.
24hr Rain Fall
00.00 in.
Sky Condition
Overcast @ 6,000 ft
VFR

METAR KAEL 192341Z AUTO 12004KT 10SM OVC060 01/M06 A3022 RMK AO2

FAA Disclaimer: The data displayed is for advisory purposes only and is not to be used for flight planning or operations.